Time;durP1;ratioP1;P1;durP2;ratioP2;P2;SDS_P1;SDS_P2;PMS_P1;PMS_P2;Temp;Humidity;BMP_temperature;BMP_pressure;BME280_temperature;BME280_humidity;BME280_pressure;Samples;Min_cycle;Max_cycle;Signal;HPM_P1;HPM_P2
2023/07/07 00:02:15;;;;;;;3.30;3.00;;;14.20;99.90;;;;;;5057850;28;20589;-63
2023/07/07 00:04:42;;;;;;;3.45;2.58;;;15.30;99.90;;;;;;5064850;28;20200;-64
2023/07/07 00:07:09;;;;;;;4.07;2.53;;;14.20;99.90;;;;;;5056978;28;20227;-64
2023/07/07 00:09:36;;;;;;;4.47;2.72;;;14.20;99.90;;;;;;5039439;28;20212;-64
2023/07/07 00:12:05;;;;;;;3.40;3.10;;;14.10;99.90;;;;;;5060477;28;20196;-64
2023/07/07 00:14:31;;;;;;;2.90;2.70;;;14.10;99.90;;;;;;5062833;28;20358;-64
2023/07/07 00:17:01;;;;;;;6.28;3.15;;;14.10;99.90;;;;;;5045307;28;20690;-64
2023/07/07 00:19:32;;;;;;;4.38;3.30;;;14.10;99.90;;;;;;5065799;28;20211;-64
2023/07/07 00:21:59;;;;;;;5.97;3.10;;;14.10;99.90;;;;;;5051731;28;20476;-64
2023/07/07 00:24:26;;;;;;;6.93;3.30;;;14.00;99.90;;;;;;5062760;28;20228;-64
2023/07/07 00:26:53;;;;;;;4.00;3.30;;;14.00;99.90;;;;;;5037793;28;20649;-63
2023/07/07 00:29:21;;;;;;;4.47;3.35;;;13.90;99.90;;;;;;5061809;28;20200;-64
2023/07/07 00:31:48;;;;;;;4.53;3.15;;;13.90;99.90;;;;;;5051318;28;20195;-64
2023/07/07 00:34:15;;;;;;;5.00;3.45;;;13.80;99.90;;;;;;5056970;28;20767;-63
2023/07/07 00:36:42;;;;;;;6.75;3.75;;;13.90;99.90;;;;;;5061766;28;20196;-64
2023/07/07 00:39:09;;;;;;;4.10;3.58;;;13.90;99.90;;;;;;5052661;28;20207;-64
2023/07/07 00:41:36;;;;;;;4.65;3.53;;;13.90;99.90;;;;;;5037668;28;20720;-64
2023/07/07 00:44:06;;;;;;;4.38;3.78;;;14.00;99.90;;;;;;5058589;28;20377;-64
2023/07/07 00:46:34;;;;;;;5.20;3.60;;;13.90;99.90;;;;;;5062661;28;20577;-64
2023/07/07 00:49:05;;;;;;;4.13;3.72;;;13.90;99.90;;;;;;5053606;28;20535;-64
2023/07/07 00:51:36;;;;;;;4.95;3.50;;;13.80;99.90;;;;;;5059664;28;20204;-64
2023/07/07 00:54:07;;;;;;;4.15;3.75;;;13.80;99.90;;;;;;5052877;28;20236;-64
2023/07/07 00:56:37;;;;;;;4.10;3.65;;;13.90;99.90;;;;;;5040274;28;20203;-64
2023/07/07 00:59:08;;;;;;;4.28;3.75;;;13.80;99.90;;;;;;5049031;28;20212;-64
2023/07/07 01:01:38;;;;;;;8.00;4.20;;;13.80;99.90;;;;;;5064584;28;20199;-64
2023/07/07 01:04:09;;;;;;;4.53;4.13;;;13.80;99.90;;;;;;5048203;28;20223;-64
2023/07/07 01:06:42;;;;;;;6.00;4.25;;;13.80;99.90;;;;;;5056706;28;20196;-63
2023/07/07 01:09:09;;;;;;;5.35;4.00;;;13.80;99.90;;;;;;5048744;28;20208;-64
2023/07/07 01:11:37;;;;;;;5.20;3.90;;;13.80;99.90;;;;;;5061100;28;20269;-64
2023/07/07 01:14:08;;;;;;;7.10;4.22;;;13.70;99.90;;;;;;5037140;28;20240;-63
2023/07/07 01:16:46;;;;;;;8.32;4.45;;;13.70;99.90;;;;;;5059785;28;20216;-63
2023/07/07 01:19:44;;;;;;;5.18;4.68;;;13.70;99.90;;;;;;5051519;28;20695;-64
2023/07/07 01:22:32;;;;;;;4.88;4.28;;;13.70;99.90;;;;;;5060639;28;20312;-63
2023/07/07 01:25:07;;;;;;;7.47;4.65;;;13.70;99.90;;;;;;5054326;28;20438;-64
2023/07/07 01:28:13;;;;;;;7.07;5.13;;;13.70;99.90;;;;;;5035541;28;20216;-64
2023/07/07 01:30:46;;;;;;;4.85;4.25;;;13.70;99.90;;;;;;5035955;28;20295;-63
2023/07/07 01:33:16;;;;;;;7.93;5.20;;;13.70;99.90;;;;;;5063346;28;20405;-64
2023/07/07 01:35:43;;;;;;;6.60;5.40;;;13.50;99.90;;;;;;5049986;28;20200;-63
2023/07/07 01:38:32;;;;;;;6.55;4.53;;;13.60;99.90;;;;;;5061173;28;20429;-64
2023/07/07 01:41:14;;;;;;;7.38;4.68;;;13.60;99.90;;;;;;5052558;28;20336;-64
2023/07/07 01:43:46;;;;;;;6.07;5.15;;;13.60;99.90;;;;;;5042030;28;20905;-64
2023/07/07 01:46:23;;;;;;;8.27;5.13;;;13.30;99.90;;;;;;5055028;28;20417;-63
2023/07/07 01:48:56;;;;;;;10.35;5.13;;;13.60;99.90;;;;;;5063672;28;20829;-65
2023/07/07 01:51:29;;;;;;;7.05;5.95;;;13.60;99.90;;;;;;5043100;28;20483;-63
2023/07/07 01:53:58;;;;;;;9.15;5.03;;;13.50;99.90;;;;;;5058699;28;20432;-63
2023/07/07 01:56:28;;;;;;;6.50;5.25;;;13.60;99.90;;;;;;5048511;28;20200;-64
2023/07/07 01:58:55;;;;;;;6.30;5.00;;;13.50;99.90;;;;;;5031301;28;20698;-64
2023/07/07 02:01:24;;;;;;;7.03;5.13;;;13.50;99.90;;;;;;5058548;28;20569;-64
2023/07/07 02:03:51;;;;;;;7.00;5.25;;;13.50;99.90;;;;;;5053510;28;20203;-64
2023/07/07 02:06:17;;;;;;;8.30;4.97;;;13.50;99.90;;;;;;5047437;28;20731;-63
2023/07/07 02:08:45;;;;;;;8.73;5.35;;;13.70;99.90;;;;;;5053942;28;20199;-64
2023/07/07 02:11:12;;;;;;;10.88;5.50;;;13.40;99.90;;;;;;5046998;28;20418;-63
2023/07/07 02:13:39;;;;;;;8.23;5.82;;;13.50;99.90;;;;;;5052272;28;20256;-64
2023/07/07 02:16:08;;;;;;;7.75;5.47;;;12.70;99.90;;;;;;5032067;28;20434;-64
2023/07/07 02:18:37;;;;;;;10.45;5.97;;;13.60;99.90;;;;;;5057169;28;20728;-63
2023/07/07 02:21:05;;;;;;;7.43;6.00;;;13.60;99.90;;;;;;5039416;28;20386;-64
2023/07/07 02:23:32;;;;;;;7.63;5.80;;;13.60;99.90;;;;;;5055938;28;20674;-63
2023/07/07 02:25:59;;;;;;;7.82;5.82;;;13.60;99.90;;;;;;5054996;28;20214;-64
2023/07/07 02:28:25;;;;;;;8.30;5.38;;;13.60;99.90;;;;;;5052838;28;20201;-64
2023/07/07 02:30:54;;;;;;;13.02;6.30;;;13.60;99.90;;;;;;5032160;28;20213;-63
2023/07/07 02:33:31;;;;;;;13.23;8.73;;;13.60;99.90;;;;;;5058219;28;20911;-64
2023/07/07 02:36:01;;;;;;;8.13;6.03;;;13.60;99.90;;;;;;5051023;28;20200;-64
2023/07/07 02:38:29;;;;;;;9.00;5.85;;;13.60;99.90;;;;;;5050440;28;20227;-63
2023/07/07 02:40:56;;;;;;;10.27;6.80;;;13.60;99.90;;;;;;5055127;28;20678;-64
2023/07/07 02:43:23;;;;;;;7.20;6.22;;;13.50;99.90;;;;;;5049773;28;20215;-64
2023/07/07 02:45:50;;;;;;;8.20;6.20;;;13.40;99.90;;;;;;5037405;28;20203;-64
2023/07/07 02:48:19;;;;;;;6.28;5.68;;;13.50;99.90;;;;;;5049096;28;20367;-64
2023/07/07 02:50:46;;;;;;;9.80;7.20;;;13.50;99.90;;;;;;5061986;28;20257;-63
2023/07/07 02:53:14;;;;;;;9.98;6.28;;;13.50;99.90;;;;;;5044554;28;20233;-64
2023/07/07 02:55:41;;;;;;;10.40;6.22;;;13.50;99.90;;;;;;5057913;28;20704;-64
2023/07/07 02:58:10;;;;;;;13.02;6.43;;;13.50;99.90;;;;;;5059888;28;20196;-63
2023/07/07 03:00:36;;;;;;;10.35;6.60;;;13.50;99.90;;;;;;5049867;28;20683;-64
2023/07/07 03:03:03;;;;;;;11.85;6.80;;;13.40;99.90;;;;;;5023829;28;20874;-64
2023/07/07 03:05:31;;;;;;;7.95;6.22;;;13.40;99.90;;;;;;5052889;28;20196;-64
2023/07/07 03:07:58;;;;;;;8.80;6.28;;;13.40;99.90;;;;;;5040119;28;22978;-63
2023/07/07 03:10:26;;;;;;;8.23;6.32;;;13.40;99.90;;;;;;5053396;28;20196;-63
2023/07/07 03:12:53;;;;;;;8.32;5.97;;;13.40;99.90;;;;;;5057751;28;20192;-64
2023/07/07 03:15:20;;;;;;;8.10;5.95;;;13.40;99.90;;;;;;5044959;28;20234;-64
2023/07/07 03:17:47;;;;;;;7.50;6.10;;;13.40;99.90;;;;;;5026597;28;20417;-64
2023/07/07 03:20:14;;;;;;;8.55;5.60;;;13.40;99.90;;;;;;5056489;28;20200;-63
2023/07/07 03:22:41;;;;;;;11.60;6.65;;;13.40;99.90;;;;;;5043251;28;20199;-64
2023/07/07 03:25:09;;;;;;;6.50;5.88;;;13.30;99.90;;;;;;5060995;28;20203;-64
2023/07/07 03:27:37;;;;;;;7.53;6.30;;;13.40;99.90;;;;;;5057900;28;20226;-63
2023/07/07 03:30:05;;;;;;;11.30;5.93;;;13.30;99.90;;;;;;5047930;28;20208;-64
2023/07/07 03:32:32;;;;;;;7.75;5.53;;;13.40;99.90;;;;;;5037596;28;20200;-63
2023/07/07 03:34:59;;;;;;;11.40;5.50;;;13.40;99.90;;;;;;5065213;28;20581;-64
2023/07/07 03:37:25;;;;;;;6.95;5.47;;;13.30;99.90;;;;;;5062213;28;20196;-63
2023/07/07 03:39:52;;;;;;;8.80;5.88;;;13.30;99.90;;;;;;5047193;28;20405;-64
2023/07/07 03:42:19;;;;;;;9.32;6.53;;;13.30;99.90;;;;;;5066205;28;20184;-64
2023/07/07 03:44:48;;;;;;;7.57;6.82;;;13.30;99.90;;;;;;5050948;28;20449;-64
2023/07/07 03:47:14;;;;;;;7.90;6.10;;;13.30;99.90;;;;;;5034357;28;20215;-64
2023/07/07 03:49:41;;;;;;;8.00;6.15;;;13.30;99.90;;;;;;5052171;28;20760;-63
2023/07/07 03:52:08;;;;;;;8.48;6.00;;;13.30;99.90;;;;;;5059451;28;20744;-63
2023/07/07 03:54:35;;;;;;;7.97;5.72;;;13.30;99.90;;;;;;5054121;28;20660;-63
2023/07/07 03:57:02;;;;;;;10.38;6.32;;;13.30;99.90;;;;;;5058985;28;20562;-63
2023/07/07 03:59:28;;;;;;;7.40;6.43;;;13.30;99.90;;;;;;5052431;28;20743;-63
2023/07/07 04:01:57;;;;;;;6.95;5.85;;;13.30;99.90;;;;;;5038283;28;20387;-63
2023/07/07 04:04:23;;;;;;;7.63;5.90;;;13.40;99.90;;;;;;5034995;28;20565;-63
2023/07/07 04:06:52;;;;;;;8.75;5.97;;;13.40;99.90;;;;;;5044053;28;20200;-63
2023/07/07 04:09:19;;;;;;;6.85;5.55;;;13.50;99.90;;;;;;5044760;28;20215;-63
2023/07/07 04:11:46;;;;;;;8.30;5.78;;;13.50;99.90;;;;;;5022325;28;20299;-63
2023/07/07 04:14:13;;;;;;;6.82;5.97;;;13.50;99.90;;;;;;5057269;28;20228;-63
2023/07/07 04:16:39;;;;;;;6.40;5.75;;;13.50;99.90;;;;;;5042157;28;21248;-63
2023/07/07 04:19:08;;;;;;;8.73;6.00;;;13.50;99.90;;;;;;5040304;28;20576;-63
2023/07/07 04:21:35;;;;;;;9.98;5.85;;;13.60;99.90;;;;;;5052409;28;20227;-64
2023/07/07 04:24:03;;;;;;;6.78;5.68;;;13.60;99.90;;;;;;5066843;28;20278;-64
2023/07/07 04:26:32;;;;;;;7.20;5.80;;;13.70;99.90;;;;;;5043230;28;20300;-64
2023/07/07 04:29:00;;;;;;;8.85;5.85;;;13.60;99.90;;;;;;5066593;28;20204;-63
2023/07/07 04:31:29;;;;;;;6.68;5.57;;;13.70;99.90;;;;;;5052808;28;20890;-64
2023/07/07 04:33:56;;;;;;;7.70;5.60;;;13.70;99.90;;;;;;5068874;28;20200;-64
2023/07/07 04:36:24;;;;;;;11.52;6.38;;;13.70;99.90;;;;;;5038401;28;20224;-64
2023/07/07 04:38:51;;;;;;;9.82;5.95;;;13.70;99.90;;;;;;5058936;28;20196;-64
2023/07/07 04:41:21;;;;;;;9.95;6.40;;;14.10;99.90;;;;;;5053904;28;20680;-64
2023/07/07 04:43:50;;;;;;;8.07;5.78;;;13.80;99.90;;;;;;5064531;28;20455;-64
2023/07/07 04:46:19;;;;;;;7.10;5.60;;;13.90;99.90;;;;;;5046540;28;20201;-64
2023/07/07 04:48:45;;;;;;;9.02;5.63;;;14.00;99.90;;;;;;5065907;28;20657;-64
2023/07/07 04:51:13;;;;;;;9.25;5.22;;;14.00;99.90;;;;;;5032807;28;20208;-64
2023/07/07 04:53:42;;;;;;;6.80;5.70;;;14.10;99.90;;;;;;5057238;28;20227;-63
2023/07/07 04:56:10;;;;;;;6.70;5.50;;;14.10;99.90;;;;;;5061375;28;20239;-63
2023/07/07 04:58:38;;;;;;;13.07;5.70;;;14.30;99.90;;;;;;5048072;28;20219;-64
2023/07/07 05:01:07;;;;;;;7.78;5.45;;;14.30;99.90;;;;;;5040980;28;20231;-64
2023/07/07 05:03:34;;;;;;;8.35;5.35;;;14.30;99.90;;;;;;5059388;28;20204;-64
2023/07/07 05:06:03;;;;;;;7.18;5.13;;;14.40;99.90;;;;;;5037414;28;20215;-64
2023/07/07 05:08:30;;;;;;;11.02;5.47;;;14.50;99.90;;;;;;5063931;28;20298;-65
2023/07/07 05:10:58;;;;;;;14.45;5.88;;;14.50;99.90;;;;;;5064922;28;20189;-64
2023/07/07 05:13:25;;;;;;;9.70;5.40;;;14.70;99.90;;;;;;5049465;28;20276;-64
2023/07/07 05:16:00;;;;;;;9.23;4.90;;;14.70;99.90;;;;;;5057360;28;20224;-64
2023/07/07 05:18:26;;;;;;;7.50;5.15;;;14.20;99.90;;;;;;5056073;28;20214;-64
2023/07/07 05:20:53;;;;;;;9.88;4.93;;;14.80;99.90;;;;;;5062069;28;20330;-64
2023/07/07 05:23:20;;;;;;;15.35;5.85;;;15.00;99.90;;;;;;5023985;28;20228;-64
2023/07/07 05:25:48;;;;;;;13.38;5.20;;;15.00;99.90;;;;;;5054505;28;20527;-63
2023/07/07 05:28:16;;;;;;;7.07;5.05;;;15.10;99.90;;;;;;5038718;28;20197;-64
2023/07/07 05:30:43;;;;;;;8.52;5.10;;;15.10;99.90;;;;;;5057895;28;20561;-64
2023/07/07 05:33:11;;;;;;;7.18;4.95;;;15.20;99.90;;;;;;5033435;28;20209;-63
2023/07/07 05:35:45;;;;;;;9.00;5.85;;;15.30;99.90;;;;;;5055933;28;20676;-64
2023/07/07 05:38:12;;;;;;;7.90;4.97;;;15.40;99.90;;;;;;5022705;28;20215;-64
2023/07/07 05:40:40;;;;;;;9.15;5.15;;;15.40;99.90;;;;;;5056213;28;20196;-64
2023/07/07 05:43:07;;;;;;;7.35;5.07;;;;;;;;;;5046478;28;20197;-63
2023/07/07 05:45:35;;;;;;;6.47;5.18;;;15.50;99.90;;;;;;5048297;28;20293;-63
2023/07/07 05:48:02;;;;;;;5.90;4.78;;;15.60;99.90;;;;;;5057722;28;20681;-64
2023/07/07 05:50:29;;;;;;;6.00;4.32;;;15.70;99.90;;;;;;5040212;28;20201;-64
2023/07/07 05:52:56;;;;;;;4.82;4.13;;;15.70;99.90;;;;;;5061040;28;20816;-63
2023/07/07 05:55:25;;;;;;;10.63;4.88;;;15.80;99.90;;;;;;5021464;28;20604;-64
2023/07/07 05:57:52;;;;;;;5.85;5.00;;;15.80;99.90;;;;;;5052608;28;20204;-64
2023/07/07 06:00:19;;;;;;;5.85;4.38;;;15.90;99.90;;;;;;5039221;28;20394;-64
2023/07/07 06:02:47;;;;;;;5.43;4.40;;;16.00;99.90;;;;;;5061502;28;20579;-64
2023/07/07 06:05:14;;;;;;;8.70;4.22;;;16.00;99.90;;;;;;5050163;28;20203;-64
2023/07/07 06:07:41;;;;;;;8.18;4.45;;;16.10;99.90;;;;;;5058130;28;20189;-64
2023/07/07 06:10:10;;;;;;;6.75;4.40;;;16.10;99.90;;;;;;5030756;28;20621;-64
2023/07/07 06:12:37;;;;;;;5.68;4.40;;;16.20;99.90;;;;;;5048005;28;20195;-65
2023/07/07 06:15:04;;;;;;;5.50;4.07;;;16.20;99.90;;;;;;5058542;28;20893;-65
2023/07/07 06:17:31;;;;;;;6.28;4.30;;;16.30;99.90;;;;;;5054537;28;20309;-64
2023/07/07 06:19:59;;;;;;;6.47;4.50;;;16.30;99.90;;;;;;5045631;28;20227;-64
2023/07/07 06:22:26;;;;;;;6.93;4.20;;;16.50;99.90;;;;;;5051003;28;20477;-63
2023/07/07 06:24:53;;;;;;;6.60;4.00;;;16.50;99.90;;;;;;5053863;28;20220;-65
2023/07/07 06:27:21;;;;;;;4.75;3.80;;;16.60;99.90;;;;;;5033543;28;20774;-64
2023/07/07 06:29:48;;;;;;;7.50;3.80;;;16.70;99.90;;;;;;5061909;28;20192;-64
2023/07/07 06:32:14;;;;;;;11.35;3.92;;;16.70;99.90;;;;;;5047303;28;20586;-64
2023/07/07 06:34:41;;;;;;;7.15;3.72;;;16.90;99.90;;;;;;5045136;28;20790;-64
2023/07/07 06:37:16;;;;;;;6.13;4.07;;;16.90;99.90;;;;;;5053639;28;20228;-64
2023/07/07 06:39:43;;;;;;;7.97;3.60;;;17.00;99.90;;;;;;5043750;28;20421;-64
2023/07/07 06:42:10;;;;;;;6.07;3.80;;;17.00;99.90;;;;;;5011783;28;20236;-64
2023/07/07 06:44:38;;;;;;;7.25;3.60;;;17.10;99.90;;;;;;5038598;28;20239;-64
2023/07/07 06:47:05;;;;;;;4.68;3.72;;;17.20;99.90;;;;;;5036851;28;21335;-63
2023/07/07 06:49:32;;;;;;;7.70;3.55;;;17.20;99.90;;;;;;4991608;28;20975;-64
2023/07/07 06:51:59;;;;;;;5.65;3.63;;;17.40;99.90;;;;;;5042082;28;20578;-64
2023/07/07 06:54:27;;;;;;;4.90;3.05;;;17.50;99.90;;;;;;5051858;28;20511;-64
2023/07/07 06:56:54;;;;;;;4.60;3.10;;;17.60;99.90;;;;;;5029678;28;20621;-63
2023/07/07 06:59:21;;;;;;;4.15;3.25;;;17.60;99.90;;;;;;5039340;28;20706;-64
2023/07/07 07:01:47;;;;;;;5.40;3.13;;;17.70;99.90;;;;;;5046398;28;20788;-64
2023/07/07 07:04:14;;;;;;;3.58;2.88;;;17.80;99.90;;;;;;5036331;28;20216;-64
2023/07/07 07:06:42;;;;;;;7.75;3.25;;;17.80;99.90;;;;;;5043657;28;20220;-64
2023/07/07 07:09:09;;;;;;;5.40;2.75;;;17.90;99.90;;;;;;5041777;28;20593;-64
2023/07/07 07:11:38;;;;;;;5.05;2.90;;;18.00;99.90;;;;;;5012386;28;20350;-65
2023/07/07 07:14:04;;;;;;;4.75;3.08;;;18.00;99.90;;;;;;5047829;28;20201;-65
2023/07/07 07:16:31;;;;;;;3.85;2.63;;;18.10;99.90;;;;;;5059327;28;20239;-64
2023/07/07 07:18:58;;;;;;;5.30;2.78;;;18.10;99.90;;;;;;5035440;28;20728;-64
2023/07/07 07:21:25;;;;;;;4.55;2.60;;;18.30;99.90;;;;;;5029391;28;20227;-64
2023/07/07 07:23:52;;;;;;;6.68;2.58;;;18.30;99.90;;;;;;5064802;28;20227;-64
2023/07/07 07:26:18;;;;;;;4.70;2.78;;;18.30;99.90;;;;;;5023944;28;20242;-64
2023/07/07 07:28:47;;;;;;;4.90;2.90;;;18.40;99.90;;;;;;5044591;28;20216;-64
2023/07/07 07:31:13;;;;;;;4.75;2.72;;;18.50;99.90;;;;;;5041122;28;20208;-64
2023/07/07 07:33:40;;;;;;;2.65;2.22;;;18.50;99.90;;;;;;5025117;28;20265;-64
2023/07/07 07:36:07;;;;;;;5.22;2.65;;;18.60;99.90;;;;;;5042622;28;20234;-64
2023/07/07 07:38:34;;;;;;;7.05;2.92;;;18.60;99.90;;;;;;5048782;28;20393;-65
2023/07/07 07:41:01;;;;;;;5.40;2.72;;;18.70;99.90;;;;;;5046279;28;20368;-64
2023/07/07 07:43:28;;;;;;;3.28;2.75;;;18.80;99.90;;;;;;5025487;28;20210;-64
2023/07/07 07:45:56;;;;;;;3.67;2.60;;;18.80;99.90;;;;;;5042729;28;20336;-64
2023/07/07 07:48:23;;;;;;;5.38;2.63;;;18.90;99.90;;;;;;5042343;28;20215;-64
2023/07/07 07:50:50;;;;;;;3.60;2.70;;;18.90;99.90;;;;;;5053528;28;20228;-64
2023/07/07 07:53:18;;;;;;;4.60;2.42;;;18.90;99.90;;;;;;5041976;28;20219;-64
2023/07/07 07:55:45;;;;;;;4.35;2.67;;;19.00;99.90;;;;;;5043964;28;20216;-64
2023/07/07 07:58:12;;;;;;;4.65;2.58;;;19.10;99.90;;;;;;5036340;28;20204;-64
2023/07/07 08:00:39;;;;;;;3.97;2.28;;;19.10;99.90;;;;;;5035376;28;20792;-64
2023/07/07 08:03:07;;;;;;;4.80;2.20;;;19.20;99.90;;;;;;5058842;28;20198;-65
2023/07/07 08:05:33;;;;;;;3.22;2.22;;;19.10;99.90;;;;;;5037840;28;20200;-65
2023/07/07 08:08:00;;;;;;;3.30;2.00;;;19.10;99.90;;;;;;5058729;28;20247;-65
2023/07/07 08:10:27;;;;;;;3.75;2.10;;;19.20;99.90;;;;;;5050233;28;20200;-64
2023/07/07 08:12:54;;;;;;;6.88;2.50;;;19.20;99.90;;;;;;5045317;28;20204;-65
2023/07/07 08:15:21;;;;;;;4.13;2.03;;;19.30;99.90;;;;;;5021800;28;20232;-64
2023/07/07 08:17:48;;;;;;;4.82;2.67;;;19.40;99.90;;;;;;5056852;28;20197;-64
2023/07/07 08:20:20;;;;;;;2.55;2.10;;;19.40;99.90;;;;;;5047205;28;20298;-65
2023/07/07 08:22:47;;;;;;;5.35;2.20;;;19.40;99.90;;;;;;5057296;28;20192;-64
2023/07/07 08:25:14;;;;;;;3.15;2.00;;;19.50;99.90;;;;;;5045295;28;20675;-65
2023/07/07 08:27:41;;;;;;;2.78;1.88;;;19.50;99.90;;;;;;5052842;28;20208;-65
2023/07/07 08:30:10;;;;;;;4.32;2.35;;;19.50;99.90;;;;;;5032621;28;20220;-64
2023/07/07 08:32:36;;;;;;;9.95;2.28;;;19.40;99.90;;;;;;5055048;28;20410;-64
2023/07/07 08:35:04;;;;;;;3.60;2.03;;;19.60;99.90;;;;;;5053577;28;20216;-64
2023/07/07 08:37:34;;;;;;;4.18;2.65;;;19.70;99.90;;;;;;5046219;28;20228;-64
2023/07/07 08:40:01;;;;;;;2.25;1.77;;;19.80;99.90;;;;;;5049457;28;20201;-64
2023/07/07 08:42:31;;;;;;;2.75;1.90;;;19.90;99.90;;;;;;5050726;28;20408;-64
2023/07/07 08:45:01;;;;;;;3.38;2.03;;;19.80;99.90;;;;;;5038017;28;20212;-64
2023/07/07 08:47:43;;;;;;;4.82;1.98;;;19.90;99.90;;;;;;5044893;28;20319;-64
2023/07/07 08:50:17;;;;;;;3.40;1.70;;;20.00;99.90;;;;;;5060394;28;20747;-64
2023/07/07 08:52:55;;;;;;;2.83;1.80;;;20.20;99.90;;;;;;5054669;28;20205;-64
2023/07/07 08:55:34;;;;;;;3.08;2.00;;;20.20;99.90;;;;;;5047307;28;20416;-64
2023/07/07 08:58:08;;;;;;;3.53;2.33;;;20.10;99.90;;;;;;5047879;28;20207;-65
2023/07/07 09:00:46;;;;;;;9.20;2.03;;;20.10;99.90;;;;;;5027330;28;20239;-65
2023/07/07 09:03:25;;;;;;;6.68;2.00;;;20.00;99.90;;;;;;5063242;28;20736;-65
2023/07/07 09:06:02;;;;;;;2.97;2.15;;;20.10;99.90;;;;;;5061121;28;20207;-65
2023/07/07 09:08:38;;;;;;;4.38;1.63;;;20.30;99.90;;;;;;5041955;28;21485;-65
2023/07/07 09:11:16;;;;;;;6.07;1.92;;;20.50;99.90;;;;;;5045464;28;20202;-65
2023/07/07 09:13:45;;;;;;;5.43;1.83;;;20.40;99.90;;;;;;5050240;28;20672;-65
2023/07/07 09:16:22;;;;;;;3.30;2.00;;;20.40;99.90;;;;;;5029500;28;20231;-65
2023/07/07 09:18:56;;;;;;;3.72;2.00;;;20.40;99.90;;;;;;5039960;28;20219;-65
2023/07/07 09:21:33;;;;;;;3.42;2.25;;;20.30;99.90;;;;;;5048405;28;20204;-64
2023/07/07 09:24:14;;;;;;;4.88;2.00;;;20.50;99.90;;;;;;5029043;28;20240;-65
2023/07/07 09:26:43;;;;;;;3.75;1.83;;;20.60;99.90;;;;;;5041171;28;20227;-64
2023/07/07 09:29:19;;;;;;;3.72;2.00;;;20.60;99.90;;;;;;5044170;28;20200;-65
2023/07/07 09:31:46;;;;;;;2.97;2.15;;;20.80;99.90;;;;;;5035476;28;20317;-64
2023/07/07 09:34:15;;;;;;;2.65;1.92;;;20.90;99.90;;;;;;5036411;28;20196;-65
2023/07/07 09:36:50;;;;;;;6.78;2.45;;;20.80;99.90;;;;;;5063940;28;20753;-64
2023/07/07 09:39:38;;;;;;;5.32;2.10;;;20.80;99.90;;;;;;5032147;28;20192;-65
2023/07/07 09:42:20;;;;;;;4.55;2.00;;;20.70;99.90;;;;;;5049632;28;20225;-65
2023/07/07 09:45:02;;;;;;;4.53;2.20;;;20.60;99.90;;;;;;5048898;28;20223;-65
2023/07/07 09:47:34;;;;;;;4.03;1.77;;;20.60;99.90;;;;;;5025384;28;21323;-66
2023/07/07 09:50:05;;;;;;;6.70;1.67;;;20.70;99.90;;;;;;5045521;28;20216;-65
2023/07/07 09:52:39;;;;;;;3.47;1.75;;;20.80;99.90;;;;;;5047178;28;20611;-65
2023/07/07 09:55:17;;;;;;;2.70;1.75;;;20.80;99.90;;;;;;5043171;28;20214;-65
2023/07/07 09:57:49;;;;;;;2.38;1.95;;;20.80;99.90;;;;;;5028204;28;20220;-64
2023/07/07 10:00:18;;;;;;;3.58;1.90;;;20.70;99.90;;;;;;5044407;28;20696;-64
2023/07/07 10:02:46;;;;;;;3.25;2.00;;;20.80;99.90;;;;;;5056400;28;20234;-65
2023/07/07 10:05:20;;;;;;;4.70;1.90;;;21.20;99.90;;;;;;5011825;28;20236;-64
2023/07/07 10:07:47;;;;;;;4.50;2.30;;;21.30;99.90;;;;;;5052109;28;20220;-65
2023/07/07 10:10:15;;;;;;;3.05;2.00;;;21.50;99.90;;;;;;5039137;28;20204;-65
2023/07/07 10:12:43;;;;;;;7.03;2.05;;;21.70;99.90;;;;;;5038594;28;20314;-65
2023/07/07 10:15:43;;;;;;;5.50;1.80;;;21.70;99.90;;;;;;5053324;28;20508;-65
2023/07/07 10:18:16;;;;;;;7.03;2.00;;;22.10;99.90;;;;;;5034707;28;20247;-65
2023/07/07 10:20:43;;;;;;;3.75;2.20;;;22.10;99.90;;;;;;5061417;28;20204;-65
2023/07/07 10:23:11;;;;;;;2.95;2.10;;;22.10;99.90;;;;;;5059538;28;20228;-65
2023/07/07 10:25:40;;;;;;;2.35;1.98;;;22.10;99.90;;;;;;5044386;28;20921;-65
2023/07/07 10:28:11;;;;;;;3.78;1.85;;;22.20;99.90;;;;;;5039624;28;20231;-65
2023/07/07 10:30:39;;;;;;;6.05;1.92;;;22.20;99.90;;;;;;5053584;28;20211;-65
2023/07/07 10:33:09;;;;;;;5.22;2.08;;;22.20;99.90;;;;;;5062016;28;20215;-65
2023/07/07 10:35:35;;;;;;;3.83;2.25;;;22.20;99.90;;;;;;5037188;28;20219;-65
2023/07/07 10:38:03;;;;;;;3.28;2.10;;;22.20;99.90;;;;;;5054977;28;20220;-65
2023/07/07 10:40:31;;;;;;;2.35;1.83;;;22.20;99.90;;;;;;5047879;28;20714;-65
2023/07/07 10:43:00;;;;;;;3.83;2.03;;;22.00;99.90;;;;;;5040953;28;20220;-65
2023/07/07 10:45:28;;;;;;;4.95;2.03;;;22.00;99.90;;;;;;5034035;28;20239;-65
2023/07/07 10:47:55;;;;;;;3.28;2.08;;;22.10;99.90;;;;;;5057851;28;20197;-65
2023/07/07 10:50:25;;;;;;;3.53;2.03;;;22.10;99.90;;;;;;5034191;28;20867;-65
2023/07/07 10:53:24;;;;;;;3.45;2.13;;;22.20;99.90;;;;;;5054642;28;20227;-65
2023/07/07 10:56:04;;;;;;;3.15;1.95;;;22.20;99.90;;;;;;5045820;28;20204;-65
2023/07/07 10:58:48;;;;;;;5.18;2.30;;;22.20;99.90;;;;;;5041961;28;20212;-66
2023/07/07 11:01:26;;;;;;;3.20;2.00;;;22.30;99.90;;;;;;5027056;28;20652;-65
2023/07/07 11:04:22;;;;;;;4.32;2.10;;;22.40;99.90;;;;;;5051610;28;20341;-65
2023/07/07 11:07:01;;;;;;;3.40;2.03;;;22.40;99.90;;;;;;5026693;28;20841;-65
2023/07/07 11:09:49;;;;;;;2.92;2.15;;;22.50;99.90;;;;;;5047235;28;20208;-65
2023/07/07 11:12:27;;;;;;;4.03;2.15;;;22.40;99.90;;;;;;5035405;28;20219;-65
2023/07/07 11:15:04;;;;;;;2.63;2.00;;;22.40;99.90;;;;;;5051422;28;20332;-65
2023/07/07 11:17:45;;;;;;;3.00;2.17;;;22.50;99.90;;;;;;5036372;28;20717;-65
2023/07/07 11:20:45;;;;;;;3.25;2.20;;;22.60;99.90;;;;;;5055704;28;20192;-65
2023/07/07 11:23:26;;;;;;;3.88;2.10;;;22.60;99.90;;;;;;5010848;28;20742;-65
2023/07/07 11:26:02;;;;;;;2.38;2.15;;;22.70;99.90;;;;;;5038950;28;20709;-65
2023/07/07 11:28:37;;;;;;;3.45;2.00;;;22.70;99.90;;;;;;5049938;28;20207;-64
2023/07/07 11:31:24;;;;;;;7.20;1.98;;;22.60;99.90;;;;;;5032038;28;20492;-64
2023/07/07 11:34:05;;;;;;;2.63;2.05;;;22.60;99.90;;;;;;5047321;28;20224;-64
2023/07/07 11:36:45;;;;;;;5.30;2.08;;;22.70;99.90;;;;;;5030597;28;20231;-64
2023/07/07 11:39:40;;;;;;;3.08;2.17;;;22.70;99.90;;;;;;5054099;28;20216;-64
2023/07/07 11:42:24;;;;;;;4.63;1.90;;;22.80;99.90;;;;;;5044409;28;20897;-64
2023/07/07 11:45:06;;;;;;;6.35;2.17;;;22.80;99.90;;;;;;5058571;28;20216;-65
2023/07/07 11:47:59;;;;;;;4.35;2.17;;;22.80;99.90;;;;;;5035005;28;20226;-64
2023/07/07 11:50:39;;;;;;;2.78;1.90;;;22.70;99.90;;;;;;5047237;28;20235;-65
2023/07/07 11:53:20;;;;;;;2.72;2.00;;;22.90;99.90;;;;;;5040103;28;20207;-65
2023/07/07 11:56:05;;;;;;;3.67;2.10;;;22.90;99.90;;;;;;5060244;28;20216;-65
2023/07/07 11:58:41;;;;;;;5.35;2.00;;;22.90;99.90;;;;;;5062309;28;20238;-65
2023/07/07 12:01:14;;;;;;;3.70;1.73;;;22.90;99.90;;;;;;5064296;28;20602;-64
2023/07/07 12:03:50;;;;;;;6.82;2.10;;;22.80;99.90;;;;;;5052284;28;20203;-65
2023/07/07 12:06:25;;;;;;;5.50;2.47;;;22.90;99.90;;;;;;5063149;28;20183;-64
2023/07/07 12:09:01;;;;;;;7.40;2.42;;;22.80;99.90;;;;;;5039683;28;20788;-65
2023/07/07 12:11:30;;;;;;;2.35;1.90;;;22.60;99.90;;;;;;5064785;28;20650;-65
2023/07/07 12:14:14;;;;;;;3.60;1.90;;;22.60;99.90;;;;;;5045654;28;20735;-64
2023/07/07 12:16:45;;;;;;;7.13;2.25;;;22.60;99.90;;;;;;5060916;28;20232;-65
2023/07/07 12:19:25;;;;;;;4.47;2.40;;;22.90;99.90;;;;;;5050314;28;21042;-65
2023/07/07 12:21:55;;;;;;;3.85;2.28;;;23.10;99.90;;;;;;5051599;28;20200;-65
2023/07/07 12:24:28;;;;;;;2.72;1.73;;;23.20;99.90;;;;;;5035744;28;20250;-65
2023/07/07 12:27:08;;;;;;;2.60;2.40;;;22.90;99.90;;;;;;5042447;28;20566;-64
2023/07/07 12:29:42;;;;;;;3.85;2.10;;;22.90;99.90;;;;;;5063989;28;20207;-64
2023/07/07 12:32:10;;;;;;;2.38;1.80;;;23.00;99.90;;;;;;5060360;28;20395;-65
2023/07/07 12:34:42;;;;;;;3.03;2.17;;;23.20;99.90;;;;;;5054309;28;20192;-65
2023/07/07 12:37:15;;;;;;;2.90;1.80;;;23.30;99.90;;;;;;5056176;28;20313;-65
2023/07/07 12:39:58;;;;;;;5.75;2.28;;;23.20;99.90;;;;;;5035067;28;20332;-65
2023/07/07 12:42:28;;;;;;;3.28;2.00;;;23.30;99.90;;;;;;5056402;28;20216;-64
2023/07/07 12:44:57;;;;;;;2.75;1.92;;;23.30;99.90;;;;;;5050408;28;20551;-65
2023/07/07 12:47:30;;;;;;;4.25;2.13;;;23.30;99.90;;;;;;5061715;28;20285;-64
2023/07/07 12:50:00;;;;;;;6.03;2.20;;;23.40;99.90;;;;;;5041707;28;20360;-65
2023/07/07 12:52:36;;;;;;;3.35;1.90;;;23.40;99.90;;;;;;5043428;28;20343;-65
2023/07/07 12:55:21;;;;;;;3.33;2.10;;;23.50;99.90;;;;;;5015414;28;20232;-65
2023/07/07 12:58:21;;;;;;;5.60;2.30;;;23.60;99.90;;;;;;5038696;28;20607;-64
2023/07/07 13:00:48;;;;;;;3.10;2.38;;;23.50;99.90;;;;;;4980964;28;20980;-65
2023/07/07 13:03:20;;;;;;;3.70;2.22;;;23.50;99.90;;;;;;5020231;28;20463;-65
2023/07/07 13:05:50;;;;;;;3.58;2.15;;;23.50;99.90;;;;;;5008834;28;20798;-64